National Geographic Sea Lion — WUR9646 — position and weather

sailwx.info

Track history (hours):
 
Tides and Currents Weather Stations Pressure Air Temp Water Temp Dewpoint Dewpoint Depression Visibility Wind Speed Wind Dir Waves Ship Positions

National Geographic Sea Lion

Owner: Lindblad Expeditions LLC, SEATTLE, WA. More information available from US FCC via Universal Licensing System and Coast Guard Vessel Documentation Center.

Last reported at 2019-Nov-11 16:23 UTC. Time now 2019-Dec-12 07:56 UTC.
Position N 31°30' W 117°05'.
Warning: this ship's position is 30 days out of date.

Length 45 m; draft 2.4 m.

Type: Passenger vessel. MMSI: 366396000.

Date/timePositionNaut miles runAvg speedWind from/ knotsBaromVisibWave heightAir tempDewpointWater temp
2019-Nov-11 16:23N 31°30' W 117°05'1610.2
2019-Nov-11 14:50N 31°45' W 117°13'1810.0
2019-Nov-11 13:00N 32°01' W 117°22'11 9.9
2019-Nov-11 11:50N 32°12' W 117°27'13 9.6
2019-Nov-11 10:30N 32°24' W 117°33'14 9.6
2019-Nov-11 09:00N 32°37' W 117°41'30 9.9
2019-Nov-11 06:00N 33°03' W 117°58'5 9.9
2019-Nov-11 05:30N 33°07' W 118°00'2010.0
2019-Nov-11 03:30N 33°25' W 118°10'10 9.9
2019-Nov-11 02:30N 33°35' W 118°14'5 9.8
2019-Nov-11 02:00N 33°40' W 118°14'5 4.8
2019-Nov-11 00:59N 33°44' W 118°16'0 0.0
2019-Nov-11 00:29N 33°44' W 118°16'0 0.0
2019-Nov-10 23:29N 33°44' W 118°16'0 0.0
2019-Nov-10 22:29N 33°44' W 118°16'0 0.0
2019-Nov-10 20:59N 33°44' W 118°16'0 0.0
2019-Nov-10 18:29N 33°44' W 118°16'0 0.0
2019-Nov-10 15:59N 33°44' W 118°16'0 0.0
2019-Nov-10 08:59N 33°44' W 118°16'0 0.0
2019-Nov-10 05:59N 33°44' W 118°16'0 0.0
2019-Nov-10 03:59N 33°44' W 118°16'0 0.0
2019-Nov-10 00:59N 33°44' W 118°16'0 0.0
2019-Nov-09 23:29N 33°44' W 118°16'0 0.0
2019-Nov-09 22:59N 33°44' W 118°16'0 0.0
2019-Nov-09 16:29N 33°44' W 118°16'0 0.0
2019-Nov-09 15:29N 33°44' W 118°16'0 0.0
2019-Nov-09 10:29N 33°44' W 118°16'0 0.0
2019-Nov-09 09:59N 33°44' W 118°16'0 0.0
2019-Nov-09 05:28N 33°44' W 118°16'0 0.0
2019-Nov-09 03:28N 33°44' W 118°16'0 0.0
2019-Nov-09 02:58N 33°44' W 118°16'0 0.0
2019-Nov-09 01:58N 33°44' W 118°16'0 0.0
2019-Nov-09 00:29N 33°44' W 118°16'0 0.0
2019-Nov-08 23:29N 33°44' W 118°16'0 0.0
2019-Nov-08 21:59N 33°44' W 118°16'0 0.0
2019-Nov-08 21:29N 33°44' W 118°16'0 0.0
2019-Nov-08 20:59N 33°44' W 118°16'0 0.0
2019-Nov-08 20:29N 33°44' W 118°16'0 0.0
2019-Nov-08 17:29N 33°44' W 118°16'0 0.0
2019-Nov-08 16:29N 33°44' W 118°16'0 0.0
2019-Nov-08 10:59N 33°44' W 118°16'0 0.0
2019-Nov-08 09:29N 33°44' W 118°16'0 0.0
2019-Nov-08 08:59N 33°44' W 118°16'0 0.1
2019-Nov-08 08:29N 33°44' W 118°16'0 0.0
2019-Nov-08 06:59N 33°44' W 118°16'0 0.0
2019-Nov-07 23:29N 33°44' W 118°16'0 0.1
2019-Nov-07 22:59N 33°44' W 118°16'0 0.0
2019-Nov-07 21:29N 33°44' W 118°16'0 0.0
2019-Nov-07 15:29N 33°44' W 118°16'0 0.0
2019-Nov-07 14:29N 33°44' W 118°16'0 0.0
2019-Nov-07 11:59N 33°44' W 118°16'0 0.0
2019-Nov-07 10:59N 33°44' W 118°16'0 0.0
2019-Nov-07 07:29N 33°44' W 118°16'0 0.0
2019-Nov-07 03:29N 33°44' W 118°16'0 0.0
2019-Nov-07 02:59N 33°44' W 118°16'0 0.0
2019-Nov-07 02:29N 33°44' W 118°16'0 0.0
2019-Nov-06 20:59N 33°44' W 118°16'0 0.0
2019-Nov-06 15:29N 33°44' W 118°16'0 0.0
2019-Nov-06 14:59N 33°44' W 118°16'0 0.0
2019-Nov-06 14:29N 33°44' W 118°16'0 0.0
2019-Nov-06 13:56N 33°44' W 118°16'0 0.1
2019-Nov-06 13:26N 33°44' W 118°16'0 0.0
2019-Nov-06 08:29N 33°44' W 118°16'0 0.0
2019-Nov-06 06:29N 33°44' W 118°16'0 0.0
2019-Nov-06 04:59N 33°44' W 118°16'0 0.0
2019-Nov-06 03:59N 33°44' W 118°16'0 0.0
2019-Nov-06 01:59N 33°44' W 118°16'0 0.0
2019-Nov-05 23:59N 33°44' W 118°16'0 0.0
2019-Nov-05 22:29N 33°44' W 118°16'0 0.0
2019-Nov-05 18:29N 33°44' W 118°16'0 0.0
2019-Nov-05 17:59N 33°44' W 118°16'0 0.0
2019-Nov-05 17:29N 33°44' W 118°16'0 0.0
2019-Nov-05 14:59N 33°44' W 118°16'0 0.0
2019-Nov-05 12:59N 33°44' W 118°16'0 0.0
2019-Nov-05 11:29N 33°44' W 118°16'0 0.1
2019-Nov-05 10:59N 33°44' W 118°16'0 0.0
2019-Nov-05 08:29N 33°44' W 118°16'0 0.0
2019-Nov-05 05:59N 33°44' W 118°16'0 0.0
2019-Nov-05 03:29N 33°44' W 118°16'0 0.0
2019-Nov-05 00:28N 33°44' W 118°16'0 0.3
2019-Nov-04 23:59N 33°44' W 118°16'0 0.1
2019-Nov-04 23:01N 33°44' W 118°16'0 0.0
2019-Nov-04 19:30N 33°44' W 118°16'0 0.0
2019-Nov-04 10:00N 33°44' W 118°16'0 0.0
2019-Nov-04 05:30N 33°44' W 118°16'0 0.0
2019-Nov-04 05:00N 33°44' W 118°16'0 0.0
2019-Nov-04 03:00N 33°44' W 118°16'0 0.0
2019-Nov-04 01:00N 33°44' W 118°16'0 0.1
2019-Nov-04 00:00N 33°44' W 118°16'0 0.0
2019-Nov-03 21:30N 33°44' W 118°16'0 0.1
2019-Nov-03 21:00N 33°44' W 118°16'0 0.0
2019-Nov-03 17:00N 33°44' W 118°16'0 0.0
2019-Nov-03 15:00N 33°44' W 118°16'0 0.1
2019-Nov-03 14:30N 33°44' W 118°16'0 0.0
2019-Nov-03 13:30N 33°44' W 118°16'0 0.0
2019-Nov-03 10:00N 33°44' W 118°16'0 0.0
2019-Nov-03 08:00N 33°44' W 118°16'0 0.0
2019-Nov-03 06:30N 33°44' W 118°16'0 0.0
2019-Nov-03 06:00N 33°44' W 118°16'0 0.0
2019-Nov-03 01:30N 33°44' W 118°16'0 0.0
2019-Nov-02 22:00N 33°44' W 118°16'0 0.0
2019-Nov-02 21:30N 33°44' W 118°16'0 0.0
2019-Nov-02 20:30N 33°44' W 118°16'0 0.0
2019-Nov-02 19:27N 33°44' W 118°16'0 0.0
2019-Nov-02 19:00N 33°44' W 118°16'0 0.1
2019-Nov-02 18:30N 33°44' W 118°16'0 0.0
2019-Nov-02 18:00N 33°44' W 118°16'0 0.1
2019-Nov-02 17:30N 33°44' W 118°16'0 0.0
2019-Nov-02 10:00N 33°44' W 118°16'0 0.0
2019-Nov-02 09:00N 33°44' W 118°16'0 0.1
2019-Nov-02 08:30N 33°44' W 118°16'0 0.0
2019-Nov-02 07:30N 33°44' W 118°16'0 0.0
2019-Nov-02 06:00N 33°44' W 118°16'0 0.0
2019-Nov-02 05:00N 33°44' W 118°16'0 0.0
2019-Nov-02 02:00N 33°44' W 118°16'0 0.0
2019-Nov-02 01:30N 33°44' W 118°16'0 0.0
2019-Nov-02 01:00N 33°44' W 118°16'0 0.1
2019-Nov-02 00:30N 33°44' W 118°16'0 0.0
2019-Nov-02 00:00N 33°44' W 118°16'0 0.1
2019-Nov-01 23:30N 33°44' W 118°16'0 0.0
2019-Nov-01 23:00N 33°44' W 118°16'0 0.0
2019-Nov-01 22:30N 33°44' W 118°16'0 0.0
2019-Nov-01 22:00N 33°44' W 118°16'0 0.1
2019-Nov-01 21:30N 33°44' W 118°16'0 0.1
2019-Nov-01 21:00N 33°44' W 118°16'0 0.1
2019-Nov-01 20:30N 33°44' W 118°16'0 0.1
2019-Nov-01 20:00N 33°44' W 118°16'0 0.0
2019-Nov-01 19:30N 33°44' W 118°16'0 0.0
2019-Nov-01 19:00N 33°44' W 118°16'0 0.0
2019-Nov-01 18:30N 33°44' W 118°16'0 0.1
2019-Nov-01 18:00N 33°44' W 118°16'0 0.1
2019-Nov-01 17:30N 33°44' W 118°16'0 0.0
2019-Nov-01 17:00N 33°44' W 118°16'0 0.0
2019-Nov-01 16:30N 33°44' W 118°16'  
Track history (hours):
 
Tides and Currents Weather Stations Pressure Air Temp Water Temp Dewpoint Dewpoint Depression Visibility Wind Speed Wind Dir Waves Ship Positions

National Geographic Sea Lion

Owner: Lindblad Expeditions LLC, SEATTLE, WA. More information available from US FCC via Universal Licensing System and Coast Guard Vessel Documentation Center.

Last reported at 2019-Nov-11 16:23 UTC. Time now 2019-Dec-12 07:56 UTC.
Position N 31°30' W 117°05'.
Warning: this ship's position is 30 days out of date.

Length 45 m; draft 2.4 m.

Type: Passenger vessel. MMSI: 366396000.

Date/timePositionNaut miles runAvg speedWind from/ knotsBaromVisibWave heightAir tempDewpointWater temp
2019-Nov-11 16:23N 31°30' W 117°05'1610.2
2019-Nov-11 14:50N 31°45' W 117°13'1810.0
2019-Nov-11 13:00N 32°01' W 117°22'11 9.9
2019-Nov-11 11:50N 32°12' W 117°27'13 9.6
2019-Nov-11 10:30N 32°24' W 117°33'14 9.6
2019-Nov-11 09:00N 32°37' W 117°41'30 9.9
2019-Nov-11 06:00N 33°03' W 117°58'5 9.9
2019-Nov-11 05:30N 33°07' W 118°00'2010.0
2019-Nov-11 03:30N 33°25' W 118°10'10 9.9
2019-Nov-11 02:30N 33°35' W 118°14'5 9.8
2019-Nov-11 02:00N 33°40' W 118°14'5 4.8
2019-Nov-11 00:59N 33°44' W 118°16'0 0.0
2019-Nov-11 00:29N 33°44' W 118°16'0 0.0
2019-Nov-10 23:29N 33°44' W 118°16'0 0.0
2019-Nov-10 22:29N 33°44' W 118°16'0 0.0
2019-Nov-10 20:59N 33°44' W 118°16'0 0.0
2019-Nov-10 18:29N 33°44' W 118°16'0 0.0
2019-Nov-10 15:59N 33°44' W 118°16'0 0.0
2019-Nov-10 08:59N 33°44' W 118°16'0 0.0
2019-Nov-10 05:59N 33°44' W 118°16'0 0.0
2019-Nov-10 03:59N 33°44' W 118°16'0 0.0
2019-Nov-10 00:59N 33°44' W 118°16'0 0.0
2019-Nov-09 23:29N 33°44' W 118°16'0 0.0
2019-Nov-09 22:59N 33°44' W 118°16'0 0.0
2019-Nov-09 16:29N 33°44' W 118°16'0 0.0
2019-Nov-09 15:29N 33°44' W 118°16'0 0.0
2019-Nov-09 10:29N 33°44' W 118°16'0 0.0
2019-Nov-09 09:59N 33°44' W 118°16'0 0.0
2019-Nov-09 05:28N 33°44' W 118°16'0 0.0
2019-Nov-09 03:28N 33°44' W 118°16'0 0.0
2019-Nov-09 02:58N 33°44' W 118°16'0 0.0
2019-Nov-09 01:58N 33°44' W 118°16'0 0.0
2019-Nov-09 00:29N 33°44' W 118°16'0 0.0
2019-Nov-08 23:29N 33°44' W 118°16'0 0.0
2019-Nov-08 21:59N 33°44' W 118°16'0 0.0
2019-Nov-08 21:29N 33°44' W 118°16'0 0.0
2019-Nov-08 20:59N 33°44' W 118°16'0 0.0
2019-Nov-08 20:29N 33°44' W 118°16'0 0.0
2019-Nov-08 17:29N 33°44' W 118°16'0 0.0
2019-Nov-08 16:29N 33°44' W 118°16'0 0.0
2019-Nov-08 10:59N 33°44' W 118°16'0 0.0
2019-Nov-08 09:29N 33°44' W 118°16'0 0.0
2019-Nov-08 08:59N 33°44' W 118°16'0 0.1
2019-Nov-08 08:29N 33°44' W 118°16'0 0.0
2019-Nov-08 06:59N 33°44' W 118°16'0 0.0
2019-Nov-07 23:29N 33°44' W 118°16'0 0.1
2019-Nov-07 22:59N 33°44' W 118°16'0 0.0
2019-Nov-07 21:29N 33°44' W 118°16'0 0.0
2019-Nov-07 15:29N 33°44' W 118°16'0 0.0
2019-Nov-07 14:29N 33°44' W 118°16'0 0.0
2019-Nov-07 11:59N 33°44' W 118°16'0 0.0
2019-Nov-07 10:59N 33°44' W 118°16'0 0.0
2019-Nov-07 07:29N 33°44' W 118°16'0 0.0
2019-Nov-07 03:29N 33°44' W 118°16'0 0.0
2019-Nov-07 02:59N 33°44' W 118°16'0 0.0
2019-Nov-07 02:29N 33°44' W 118°16'0 0.0
2019-Nov-06 20:59N 33°44' W 118°16'0 0.0
2019-Nov-06 15:29N 33°44' W 118°16'0 0.0
2019-Nov-06 14:59N 33°44' W 118°16'0 0.0
2019-Nov-06 14:29N 33°44' W 118°16'0 0.0
2019-Nov-06 13:56N 33°44' W 118°16'0 0.1
2019-Nov-06 13:26N 33°44' W 118°16'0 0.0
2019-Nov-06 08:29N 33°44' W 118°16'0 0.0
2019-Nov-06 06:29N 33°44' W 118°16'0 0.0
2019-Nov-06 04:59N 33°44' W 118°16'0 0.0
2019-Nov-06 03:59N 33°44' W 118°16'0 0.0
2019-Nov-06 01:59N 33°44' W 118°16'0 0.0
2019-Nov-05 23:59N 33°44' W 118°16'0 0.0
2019-Nov-05 22:29N 33°44' W 118°16'0 0.0
2019-Nov-05 18:29N 33°44' W 118°16'0 0.0
2019-Nov-05 17:59N 33°44' W 118°16'0 0.0
2019-Nov-05 17:29N 33°44' W 118°16'0 0.0
2019-Nov-05 14:59N 33°44' W 118°16'0 0.0
2019-Nov-05 12:59N 33°44' W 118°16'0 0.0
2019-Nov-05 11:29N 33°44' W 118°16'0 0.1
2019-Nov-05 10:59N 33°44' W 118°16'0 0.0
2019-Nov-05 08:29N 33°44' W 118°16'0 0.0
2019-Nov-05 05:59N 33°44' W 118°16'0 0.0
2019-Nov-05 03:29N 33°44' W 118°16'0 0.0
2019-Nov-05 00:28N 33°44' W 118°16'0 0.3
2019-Nov-04 23:59N 33°44' W 118°16'0 0.1
2019-Nov-04 23:01N 33°44' W 118°16'0 0.0
2019-Nov-04 19:30N 33°44' W 118°16'0 0.0
2019-Nov-04 10:00N 33°44' W 118°16'0 0.0
2019-Nov-04 05:30N 33°44' W 118°16'0 0.0
2019-Nov-04 05:00N 33°44' W 118°16'0 0.0
2019-Nov-04 03:00N 33°44' W 118°16'0 0.0
2019-Nov-04 01:00N 33°44' W 118°16'0 0.1
2019-Nov-04 00:00N 33°44' W 118°16'0 0.0
2019-Nov-03 21:30N 33°44' W 118°16'0 0.1
2019-Nov-03 21:00N 33°44' W 118°16'0 0.0
2019-Nov-03 17:00N 33°44' W 118°16'0 0.0
2019-Nov-03 15:00N 33°44' W 118°16'0 0.1
2019-Nov-03 14:30N 33°44' W 118°16'0 0.0
2019-Nov-03 13:30N 33°44' W 118°16'0 0.0
2019-Nov-03 10:00N 33°44' W 118°16'0 0.0
2019-Nov-03 08:00N 33°44' W 118°16'0 0.0
2019-Nov-03 06:30N 33°44' W 118°16'0 0.0
2019-Nov-03 06:00N 33°44' W 118°16'0 0.0
2019-Nov-03 01:30N 33°44' W 118°16'0 0.0
2019-Nov-02 22:00N 33°44' W 118°16'0 0.0
2019-Nov-02 21:30N 33°44' W 118°16'0 0.0
2019-Nov-02 20:30N 33°44' W 118°16'0 0.0
2019-Nov-02 19:27N 33°44' W 118°16'0 0.0
2019-Nov-02 19:00N 33°44' W 118°16'0 0.1
2019-Nov-02 18:30N 33°44' W 118°16'0 0.0
2019-Nov-02 18:00N 33°44' W 118°16'0 0.1
2019-Nov-02 17:30N 33°44' W 118°16'0 0.0
2019-Nov-02 10:00N 33°44' W 118°16'0 0.0
2019-Nov-02 09:00N 33°44' W 118°16'0 0.1
2019-Nov-02 08:30N 33°44' W 118°16'0 0.0
2019-Nov-02 07:30N 33°44' W 118°16'0 0.0
2019-Nov-02 06:00N 33°44' W 118°16'0 0.0
2019-Nov-02 05:00N 33°44' W 118°16'0 0.0
2019-Nov-02 02:00N 33°44' W 118°16'0 0.0
2019-Nov-02 01:30N 33°44' W 118°16'0 0.0
2019-Nov-02 01:00N 33°44' W 118°16'0 0.1
2019-Nov-02 00:30N 33°44' W 118°16'0 0.0
2019-Nov-02 00:00N 33°44' W 118°16'0 0.1
2019-Nov-01 23:30N 33°44' W 118°16'0 0.0
2019-Nov-01 23:00N 33°44' W 118°16'0 0.0
2019-Nov-01 22:30N 33°44' W 118°16'0 0.0
2019-Nov-01 22:00N 33°44' W 118°16'0 0.1
2019-Nov-01 21:30N 33°44' W 118°16'0 0.1
2019-Nov-01 21:00N 33°44' W 118°16'0 0.1
2019-Nov-01 20:30N 33°44' W 118°16'0 0.1
2019-Nov-01 20:00N 33°44' W 118°16'0 0.0
2019-Nov-01 19:30N 33°44' W 118°16'0 0.0
2019-Nov-01 19:00N 33°44' W 118°16'0 0.0
2019-Nov-01 18:30N 33°44' W 118°16'0 0.1
2019-Nov-01 18:00N 33°44' W 118°16'0 0.1
2019-Nov-01 17:30N 33°44' W 118°16'0 0.0
2019-Nov-01 17:00N 33°44' W 118°16'0 0.0
2019-Nov-01 16:30N 33°44' W 118°16'  

Dump ship's entire track history